sensor_id;sensor_type;location;lat;lon;timestamp;temperature;humidity
23069;DHT22;11702;50.856;4.348;2022-12-20T00:01:13;12.30;99.90
23069;DHT22;11702;50.856;4.348;2022-12-20T00:03:39;12.40;99.90
23069;DHT22;11702;50.856;4.348;2022-12-20T00:06:05;12.30;99.90
23069;DHT22;11702;50.856;4.348;2022-12-20T00:08:32;12.30;99.90
23069;DHT22;11702;50.856;4.348;2022-12-20T00:11:00;12.10;99.90
23069;DHT22;11702;50.856;4.348;2022-12-20T00:13:27;12.00;99.90
23069;DHT22;11702;50.856;4.348;2022-12-20T00:16:13;11.80;99.90
23069;DHT22;11702;50.856;4.348;2022-12-20T00:18:39;11.70;99.90
23069;DHT22;11702;50.856;4.348;2022-12-20T00:21:07;11.70;99.90
23069;DHT22;11702;50.856;4.348;2022-12-20T00:23:33;11.70;99.90
23069;DHT22;11702;50.856;4.348;2022-12-20T00:26:04;11.60;99.90
23069;DHT22;11702;50.856;4.348;2022-12-20T00:28:30;11.50;99.90
23069;DHT22;11702;50.856;4.348;2022-12-20T00:30:56;11.40;99.90
23069;DHT22;11702;50.856;4.348;2022-12-20T00:33:22;11.30;99.90
23069;DHT22;11702;50.856;4.348;2022-12-20T00:35:47;11.20;99.90
23069;DHT22;11702;50.856;4.348;2022-12-20T00:38:13;11.20;99.90
23069;DHT22;11702;50.856;4.348;2022-12-20T00:40:39;11.20;99.90
23069;DHT22;11702;50.856;4.348;2022-12-20T00:43:04;11.20;99.90
23069;DHT22;11702;50.856;4.348;2022-12-20T00:45:30;11.10;99.90
23069;DHT22;11702;50.856;4.348;2022-12-20T00:47:55;11.10;99.90
23069;DHT22;11702;50.856;4.348;2022-12-20T00:50:21;11.10;99.90
23069;DHT22;11702;50.856;4.348;2022-12-20T00:52:47;11.00;99.90
23069;DHT22;11702;50.856;4.348;2022-12-20T00:55:12;11.00;99.90
23069;DHT22;11702;50.856;4.348;2022-12-20T00:57:38;11.10;99.90
23069;DHT22;11702;50.856;4.348;2022-12-20T01:00:06;11.10;99.90
23069;DHT22;11702;50.856;4.348;2022-12-20T01:02:32;11.20;99.90
23069;DHT22;11702;50.856;4.348;2022-12-20T01:04:57;11.20;99.90
23069;DHT22;11702;50.856;4.348;2022-12-20T01:07:23;11.20;99.90
23069;DHT22;11702;50.856;4.348;2022-12-20T01:09:49;11.30;99.90
23069;DHT22;11702;50.856;4.348;2022-12-20T01:12:15;11.30;99.90
23069;DHT22;11702;50.856;4.348;2022-12-20T01:14:41;11.40;99.90
23069;DHT22;11702;50.856;4.348;2022-12-20T01:17:06;11.50;99.90
23069;DHT22;11702;50.856;4.348;2022-12-20T01:19:32;11.50;99.90
23069;DHT22;11702;50.856;4.348;2022-12-20T01:21:58;11.60;99.90
23069;DHT22;11702;50.856;4.348;2022-12-20T01:24:23;11.60;99.90
23069;DHT22;11702;50.856;4.348;2022-12-20T01:26:49;11.60;99.90
23069;DHT22;11702;50.856;4.348;2022-12-20T01:29:15;11.50;99.90
23069;DHT22;11702;50.856;4.348;2022-12-20T01:31:41;11.50;99.90
23069;DHT22;11702;50.856;4.348;2022-12-20T01:34:06;11.50;99.90
23069;DHT22;11702;50.856;4.348;2022-12-20T01:36:34;11.50;99.90
23069;DHT22;11702;50.856;4.348;2022-12-20T01:39:09;11.50;99.90
23069;DHT22;11702;50.856;4.348;2022-12-20T01:41:36;11.50;99.90
23069;DHT22;11702;50.856;4.348;2022-12-20T01:46:33;11.30;99.90
23069;DHT22;11702;50.856;4.348;2022-12-20T01:49:11;11.40;99.90
23069;DHT22;11702;50.856;4.348;2022-12-20T01:52:01;11.30;99.90
23069;DHT22;11702;50.856;4.348;2022-12-20T02:00:04;11.50;99.90
23069;DHT22;11702;50.856;4.348;2022-12-20T02:02:31;11.60;99.90
23069;DHT22;11702;50.856;4.348;2022-12-20T02:04:57;11.60;99.90
23069;DHT22;11702;50.856;4.348;2022-12-20T02:07:25;11.60;99.90
23069;DHT22;11702;50.856;4.348;2022-12-20T02:09:53;11.50;99.90
23069;DHT22;11702;50.856;4.348;2022-12-20T02:12:23;11.40;99.90
23069;DHT22;11702;50.856;4.348;2022-12-20T02:28:22;11.60;99.90
23069;DHT22;11702;50.856;4.348;2022-12-20T02:30:53;11.60;99.90
23069;DHT22;11702;50.856;4.348;2022-12-20T02:33:23;11.70;99.90
23069;DHT22;11702;50.856;4.348;2022-12-20T02:35:50;11.70;99.90
23069;DHT22;11702;50.856;4.348;2022-12-20T02:40:58;11.90;99.90
23069;DHT22;11702;50.856;4.348;2022-12-20T02:43:26;11.90;99.90
23069;DHT22;11702;50.856;4.348;2022-12-20T02:46:12;12.00;99.90
23069;DHT22;11702;50.856;4.348;2022-12-20T02:48:39;11.90;99.90
23069;DHT22;11702;50.856;4.348;2022-12-20T02:51:06;11.90;99.90
23069;DHT22;11702;50.856;4.348;2022-12-20T02:53:33;11.90;99.90
23069;DHT22;11702;50.856;4.348;2022-12-20T02:58:42;11.90;99.90
23069;DHT22;11702;50.856;4.348;2022-12-20T03:01:13;12.00;99.90
23069;DHT22;11702;50.856;4.348;2022-12-20T03:03:40;11.90;99.90
23069;DHT22;11702;50.856;4.348;2022-12-20T03:06:06;12.00;99.90
23069;DHT22;11702;50.856;4.348;2022-12-20T03:08:32;12.00;99.90
23069;DHT22;11702;50.856;4.348;2022-12-20T03:10:58;12.00;99.90
23069;DHT22;11702;50.856;4.348;2022-12-20T03:13:24;12.10;99.90
23069;DHT22;11702;50.856;4.348;2022-12-20T03:15:51;12.10;99.90
23069;DHT22;11702;50.856;4.348;2022-12-20T03:18:16;12.00;99.90
23069;DHT22;11702;50.856;4.348;2022-12-20T03:20:42;12.00;99.90
23069;DHT22;11702;50.856;4.348;2022-12-20T03:23:08;12.10;99.90
23069;DHT22;11702;50.856;4.348;2022-12-20T03:25:34;12.00;99.90
23069;DHT22;11702;50.856;4.348;2022-12-20T03:27:59;12.00;99.90
23069;DHT22;11702;50.856;4.348;2022-12-20T03:30:25;12.10;99.90
23069;DHT22;11702;50.856;4.348;2022-12-20T03:32:51;12.10;99.90
23069;DHT22;11702;50.856;4.348;2022-12-20T03:35:16;12.10;99.90
23069;DHT22;11702;50.856;4.348;2022-12-20T03:37:42;12.10;99.90
23069;DHT22;11702;50.856;4.348;2022-12-20T03:40:08;12.00;99.90
23069;DHT22;11702;50.856;4.348;2022-12-20T03:42:35;11.90;99.90
23069;DHT22;11702;50.856;4.348;2022-12-20T03:45:01;11.90;99.90
23069;DHT22;11702;50.856;4.348;2022-12-20T03:47:27;11.80;99.90
23069;DHT22;11702;50.856;4.348;2022-12-20T03:49:52;11.90;99.90
23069;DHT22;11702;50.856;4.348;2022-12-20T03:52:18;11.90;99.90
23069;DHT22;11702;50.856;4.348;2022-12-20T03:54:44;12.00;99.90
23069;DHT22;11702;50.856;4.348;2022-12-20T03:57:09;12.00;99.90
23069;DHT22;11702;50.856;4.348;2022-12-20T03:59:35;12.00;99.90
23069;DHT22;11702;50.856;4.348;2022-12-20T04:02:01;12.00;99.90
23069;DHT22;11702;50.856;4.348;2022-12-20T04:04:28;12.00;99.90
23069;DHT22;11702;50.856;4.348;2022-12-20T04:06:53;12.10;99.90
23069;DHT22;11702;50.856;4.348;2022-12-20T04:09:19;12.00;99.90
23069;DHT22;11702;50.856;4.348;2022-12-20T04:11:44;12.00;99.90
23069;DHT22;11702;50.856;4.348;2022-12-20T04:14:10;12.10;99.90
23069;DHT22;11702;50.856;4.348;2022-12-20T04:16:36;12.10;99.90
23069;DHT22;11702;50.856;4.348;2022-12-20T04:19:01;12.20;99.90
23069;DHT22;11702;50.856;4.348;2022-12-20T04:21:30;12.10;99.90
23069;DHT22;11702;50.856;4.348;2022-12-20T04:23:56;12.10;99.90
23069;DHT22;11702;50.856;4.348;2022-12-20T04:26:22;12.10;99.90
23069;DHT22;11702;50.856;4.348;2022-12-20T04:28:48;12.10;99.90
23069;DHT22;11702;50.856;4.348;2022-12-20T04:31:14;12.10;99.90
23069;DHT22;11702;50.856;4.348;2022-12-20T04:33:39;12.10;99.90
23069;DHT22;11702;50.856;4.348;2022-12-20T04:36:06;12.10;99.90
23069;DHT22;11702;50.856;4.348;2022-12-20T04:38:32;12.10;99.90
23069;DHT22;11702;50.856;4.348;2022-12-20T04:40:57;12.00;99.90
23069;DHT22;11702;50.856;4.348;2022-12-20T04:43:23;12.00;99.90
23069;DHT22;11702;50.856;4.348;2022-12-20T04:45:51;11.90;99.90
23069;DHT22;11702;50.856;4.348;2022-12-20T04:48:18;11.90;99.90
23069;DHT22;11702;50.856;4.348;2022-12-20T04:50:48;11.90;99.90
23069;DHT22;11702;50.856;4.348;2022-12-20T04:53:14;11.90;99.90
23069;DHT22;11702;50.856;4.348;2022-12-20T04:55:58;11.90;99.90
23069;DHT22;11702;50.856;4.348;2022-12-20T04:58:24;11.90;99.90
23069;DHT22;11702;50.856;4.348;2022-12-20T05:00:50;11.90;99.90
23069;DHT22;11702;50.856;4.348;2022-12-20T05:03:20;12.00;99.90
23069;DHT22;11702;50.856;4.348;2022-12-20T05:05:47;12.00;99.90
23069;DHT22;11702;50.856;4.348;2022-12-20T05:08:12;12.00;99.90
23069;DHT22;11702;50.856;4.348;2022-12-20T05:10:38;11.90;99.90
23069;DHT22;11702;50.856;4.348;2022-12-20T05:13:04;11.90;99.90
23069;DHT22;11702;50.856;4.348;2022-12-20T05:15:29;11.90;99.90
23069;DHT22;11702;50.856;4.348;2022-12-20T05:17:55;11.90;99.90
23069;DHT22;11702;50.856;4.348;2022-12-20T05:20:30;11.90;99.90
23069;DHT22;11702;50.856;4.348;2022-12-20T05:22:57;11.80;99.90
23069;DHT22;11702;50.856;4.348;2022-12-20T05:25:49;11.80;99.90
23069;DHT22;11702;50.856;4.348;2022-12-20T05:28:34;11.80;99.90
23069;DHT22;11702;50.856;4.348;2022-12-20T05:31:01;11.80;99.90
23069;DHT22;11702;50.856;4.348;2022-12-20T05:33:27;11.90;99.90
23069;DHT22;11702;50.856;4.348;2022-12-20T05:35:53;11.80;99.90
23069;DHT22;11702;50.856;4.348;2022-12-20T05:38:18;11.80;99.90
23069;DHT22;11702;50.856;4.348;2022-12-20T05:40:47;11.80;99.90
23069;DHT22;11702;50.856;4.348;2022-12-20T05:43:13;11.80;99.90
23069;DHT22;11702;50.856;4.348;2022-12-20T05:45:40;11.80;99.90
23069;DHT22;11702;50.856;4.348;2022-12-20T05:48:09;11.80;99.90
23069;DHT22;11702;50.856;4.348;2022-12-20T05:50:34;11.80;99.90
23069;DHT22;11702;50.856;4.348;2022-12-20T05:53:00;11.80;99.90
23069;DHT22;11702;50.856;4.348;2022-12-20T05:55:25;11.80;99.90
23069;DHT22;11702;50.856;4.348;2022-12-20T05:57:51;11.80;99.90
23069;DHT22;11702;50.856;4.348;2022-12-20T06:00:17;11.90;99.90
23069;DHT22;11702;50.856;4.348;2022-12-20T06:02:42;11.90;99.90
23069;DHT22;11702;50.856;4.348;2022-12-20T06:05:08;11.90;99.90
23069;DHT22;11702;50.856;4.348;2022-12-20T06:07:34;11.90;99.90
23069;DHT22;11702;50.856;4.348;2022-12-20T06:09:59;11.90;99.90
23069;DHT22;11702;50.856;4.348;2022-12-20T06:12:25;12.00;99.90
23069;DHT22;11702;50.856;4.348;2022-12-20T06:14:51;12.00;99.90
23069;DHT22;11702;50.856;4.348;2022-12-20T06:17:16;12.00;99.90
23069;DHT22;11702;50.856;4.348;2022-12-20T06:19:42;12.00;99.90
23069;DHT22;11702;50.856;4.348;2022-12-20T06:22:08;12.10;99.90
23069;DHT22;11702;50.856;4.348;2022-12-20T06:24:35;12.10;99.90
23069;DHT22;11702;50.856;4.348;2022-12-20T06:27:01;12.10;99.90
23069;DHT22;11702;50.856;4.348;2022-12-20T06:29:27;12.10;99.90
23069;DHT22;11702;50.856;4.348;2022-12-20T06:31:53;12.20;99.90
23069;DHT22;11702;50.856;4.348;2022-12-20T06:34:19;12.20;99.90
23069;DHT22;11702;50.856;4.348;2022-12-20T06:36:44;12.30;99.90
23069;DHT22;11702;50.856;4.348;2022-12-20T06:39:11;12.30;99.90
23069;DHT22;11702;50.856;4.348;2022-12-20T06:41:38;12.30;99.90
23069;DHT22;11702;50.856;4.348;2022-12-20T06:44:03;12.30;99.90
23069;DHT22;11702;50.856;4.348;2022-12-20T06:46:31;12.40;99.90
23069;DHT22;11702;50.856;4.348;2022-12-20T06:48:56;12.40;99.90
23069;DHT22;11702;50.856;4.348;2022-12-20T06:51:22;12.50;99.90
23069;DHT22;11702;50.856;4.348;2022-12-20T06:53:48;12.50;99.90
23069;DHT22;11702;50.856;4.348;2022-12-20T06:56:13;12.60;99.90
23069;DHT22;11702;50.856;4.348;2022-12-20T06:58:39;12.50;99.90
23069;DHT22;11702;50.856;4.348;2022-12-20T07:01:05;12.50;99.90
23069;DHT22;11702;50.856;4.348;2022-12-20T07:03:30;12.40;99.90
23069;DHT22;11702;50.856;4.348;2022-12-20T07:05:56;12.30;99.90
23069;DHT22;11702;50.856;4.348;2022-12-20T07:08:22;12.30;99.90
23069;DHT22;11702;50.856;4.348;2022-12-20T07:10:49;12.10;99.90
23069;DHT22;11702;50.856;4.348;2022-12-20T07:13:17;12.00;99.90
23069;DHT22;11702;50.856;4.348;2022-12-20T07:15:42;11.80;99.90
23069;DHT22;11702;50.856;4.348;2022-12-20T07:18:08;11.70;99.90
23069;DHT22;11702;50.856;4.348;2022-12-20T07:20:34;11.60;99.90
23069;DHT22;11702;50.856;4.348;2022-12-20T07:23:00;11.50;99.90
23069;DHT22;11702;50.856;4.348;2022-12-20T07:25:25;11.30;99.90
23069;DHT22;11702;50.856;4.348;2022-12-20T07:27:51;11.20;99.90
23069;DHT22;11702;50.856;4.348;2022-12-20T07:30:18;11.10;99.90
23069;DHT22;11702;50.856;4.348;2022-12-20T07:32:44;11.00;99.90
23069;DHT22;11702;50.856;4.348;2022-12-20T07:35:10;11.00;99.90
23069;DHT22;11702;50.856;4.348;2022-12-20T07:37:36;11.00;99.90
23069;DHT22;11702;50.856;4.348;2022-12-20T07:40:03;10.90;99.90
23069;DHT22;11702;50.856;4.348;2022-12-20T07:42:28;10.80;99.90
23069;DHT22;11702;50.856;4.348;2022-12-20T07:44:54;10.80;99.90
23069;DHT22;11702;50.856;4.348;2022-12-20T07:47:19;10.80;99.90
23069;DHT22;11702;50.856;4.348;2022-12-20T07:49:45;10.80;99.90
23069;DHT22;11702;50.856;4.348;2022-12-20T07:52:12;10.80;99.90
23069;DHT22;11702;50.856;4.348;2022-12-20T07:54:50;10.80;99.90
23069;DHT22;11702;50.856;4.348;2022-12-20T07:57:31;10.70;99.90
23069;DHT22;11702;50.856;4.348;2022-12-20T07:59:59;10.60;99.90
23069;DHT22;11702;50.856;4.348;2022-12-20T08:02:30;10.60;99.90
23069;DHT22;11702;50.856;4.348;2022-12-20T08:04:56;10.60;99.90
23069;DHT22;11702;50.856;4.348;2022-12-20T08:07:23;10.60;99.90
23069;DHT22;11702;50.856;4.348;2022-12-20T08:09:49;10.60;99.90
23069;DHT22;11702;50.856;4.348;2022-12-20T08:12:16;10.60;99.90
23069;DHT22;11702;50.856;4.348;2022-12-20T08:14:43;10.60;99.90
23069;DHT22;11702;50.856;4.348;2022-12-20T08:17:09;10.60;99.90
23069;DHT22;11702;50.856;4.348;2022-12-20T08:19:36;10.60;99.90
23069;DHT22;11702;50.856;4.348;2022-12-20T08:22:03;10.60;99.90
23069;DHT22;11702;50.856;4.348;2022-12-20T08:24:29;10.60;99.90
23069;DHT22;11702;50.856;4.348;2022-12-20T08:26:55;10.60;99.90
23069;DHT22;11702;50.856;4.348;2022-12-20T08:29:20;10.50;99.90
23069;DHT22;11702;50.856;4.348;2022-12-20T08:31:46;10.60;99.90
23069;DHT22;11702;50.856;4.348;2022-12-20T08:34:12;10.60;99.90
23069;DHT22;11702;50.856;4.348;2022-12-20T08:36:39;10.60;99.90
23069;DHT22;11702;50.856;4.348;2022-12-20T08:39:08;10.60;99.90
23069;DHT22;11702;50.856;4.348;2022-12-20T08:41:35;10.60;99.90
23069;DHT22;11702;50.856;4.348;2022-12-20T08:44:03;10.70;99.90
23069;DHT22;11702;50.856;4.348;2022-12-20T08:46:30;10.60;99.90
23069;DHT22;11702;50.856;4.348;2022-12-20T08:48:57;10.70;99.90
23069;DHT22;11702;50.856;4.348;2022-12-20T08:51:25;10.70;99.90
23069;DHT22;11702;50.856;4.348;2022-12-20T08:53:51;10.90;99.90
23069;DHT22;11702;50.856;4.348;2022-12-20T08:56:17;10.90;99.90
23069;DHT22;11702;50.856;4.348;2022-12-20T08:58:43;11.00;99.90
23069;DHT22;11702;50.856;4.348;2022-12-20T09:01:17;11.00;99.90
23069;DHT22;11702;50.856;4.348;2022-12-20T09:03:44;11.00;99.90
23069;DHT22;11702;50.856;4.348;2022-12-20T09:06:18;11.10;99.90
23069;DHT22;11702;50.856;4.348;2022-12-20T09:08:44;11.20;99.90
23069;DHT22;11702;50.856;4.348;2022-12-20T09:11:15;11.10;99.90
23069;DHT22;11702;50.856;4.348;2022-12-20T09:13:43;11.10;99.90
23069;DHT22;11702;50.856;4.348;2022-12-20T09:16:10;11.20;99.90
23069;DHT22;11702;50.856;4.348;2022-12-20T09:18:36;11.10;99.90
23069;DHT22;11702;50.856;4.348;2022-12-20T09:21:04;11.20;99.90
23069;DHT22;11702;50.856;4.348;2022-12-20T09:23:30;11.20;99.90
23069;DHT22;11702;50.856;4.348;2022-12-20T09:26:05;11.20;99.90
23069;DHT22;11702;50.856;4.348;2022-12-20T09:28:31;11.20;99.90
23069;DHT22;11702;50.856;4.348;2022-12-20T09:30:59;11.20;99.90
23069;DHT22;11702;50.856;4.348;2022-12-20T09:33:26;11.30;99.90
23069;DHT22;11702;50.856;4.348;2022-12-20T09:35:53;11.40;99.90
23069;DHT22;11702;50.856;4.348;2022-12-20T09:38:18;11.50;99.90
23069;DHT22;11702;50.856;4.348;2022-12-20T09:40:51;11.40;99.90
23069;DHT22;11702;50.856;4.348;2022-12-20T09:43:17;11.40;99.90
23069;DHT22;11702;50.856;4.348;2022-12-20T09:45:47;11.40;99.90
23069;DHT22;11702;50.856;4.348;2022-12-20T09:48:19;11.40;99.90
23069;DHT22;11702;50.856;4.348;2022-12-20T09:53:34;11.20;99.90
23069;DHT22;11702;50.856;4.348;2022-12-20T09:56:14;11.10;99.90
23069;DHT22;11702;50.856;4.348;2022-12-20T10:01:29;11.10;99.90
23069;DHT22;11702;50.856;4.348;2022-12-20T10:03:57;11.10;99.90
23069;DHT22;11702;50.856;4.348;2022-12-20T10:06:48;11.00;99.90
23069;DHT22;11702;50.856;4.348;2022-12-20T10:17:15;11.10;99.90
23069;DHT22;11702;50.856;4.348;2022-12-20T10:25:39;11.00;99.90
23069;DHT22;11702;50.856;4.348;2022-12-20T10:28:11;11.10;99.90
23069;DHT22;11702;50.856;4.348;2022-12-20T10:30:37;11.10;99.90
23069;DHT22;11702;50.856;4.348;2022-12-20T10:33:03;11.10;99.90
23069;DHT22;11702;50.856;4.348;2022-12-20T10:35:29;11.10;99.90
23069;DHT22;11702;50.856;4.348;2022-12-20T10:38:03;11.10;99.90
23069;DHT22;11702;50.856;4.348;2022-12-20T10:40:33;11.10;99.90
23069;DHT22;11702;50.856;4.348;2022-12-20T10:43:00;11.20;99.90
23069;DHT22;11702;50.856;4.348;2022-12-20T10:45:39;11.10;99.90
23069;DHT22;11702;50.856;4.348;2022-12-20T10:48:29;11.20;99.90
23069;DHT22;11702;50.856;4.348;2022-12-20T10:53:37;11.20;99.90
23069;DHT22;11702;50.856;4.348;2022-12-20T10:56:25;11.10;99.90
23069;DHT22;11702;50.856;4.348;2022-12-20T11:01:44;11.10;99.90
23069;DHT22;11702;50.856;4.348;2022-12-20T11:04:31;11.10;99.90
23069;DHT22;11702;50.856;4.348;2022-12-20T11:06:59;11.10;99.90
23069;DHT22;11702;50.856;4.348;2022-12-20T11:09:33;11.10;99.90
23069;DHT22;11702;50.856;4.348;2022-12-20T11:12:15;11.00;99.90
23069;DHT22;11702;50.856;4.348;2022-12-20T11:14:43;11.20;99.90
23069;DHT22;11702;50.856;4.348;2022-12-20T11:17:24;11.30;99.90
23069;DHT22;11702;50.856;4.348;2022-12-20T11:39:39;10.90;99.90
23069;DHT22;11702;50.856;4.348;2022-12-20T11:51:00;11.00;99.90
23069;DHT22;11702;50.856;4.348;2022-12-20T11:56:02;10.90;99.90
23069;DHT22;11702;50.856;4.348;2022-12-20T11:58:36;10.80;99.90
23069;DHT22;11702;50.856;4.348;2022-12-20T12:01:09;10.80;99.90
23069;DHT22;11702;50.856;4.348;2022-12-20T12:03:40;10.80;99.90
23069;DHT22;11702;50.856;4.348;2022-12-20T12:06:24;10.90;99.90
23069;DHT22;11702;50.856;4.348;2022-12-20T12:11:51;10.80;99.90
23069;DHT22;11702;50.856;4.348;2022-12-20T12:14:27;10.80;99.90
23069;DHT22;11702;50.856;4.348;2022-12-20T12:16:57;10.80;99.90
23069;DHT22;11702;50.856;4.348;2022-12-20T12:19:25;10.80;99.90
23069;DHT22;11702;50.856;4.348;2022-12-20T12:22:00;10.80;99.90
23069;DHT22;11702;50.856;4.348;2022-12-20T12:24:34;10.80;99.90
23069;DHT22;11702;50.856;4.348;2022-12-20T12:27:03;10.70;99.90
23069;DHT22;11702;50.856;4.348;2022-12-20T12:29:29;10.70;99.90
23069;DHT22;11702;50.856;4.348;2022-12-20T12:32:16;10.70;99.90
23069;DHT22;11702;50.856;4.348;2022-12-20T12:43:40;10.70;99.90
23069;DHT22;11702;50.856;4.348;2022-12-20T12:46:29;10.80;99.90
23069;DHT22;11702;50.856;4.348;2022-12-20T12:49:05;10.80;99.90
23069;DHT22;11702;50.856;4.348;2022-12-20T12:51:37;10.80;99.90
23069;DHT22;11702;50.856;4.348;2022-12-20T12:54:26;10.80;99.90
23069;DHT22;11702;50.856;4.348;2022-12-20T12:56:59;10.70;99.90
23069;DHT22;11702;50.856;4.348;2022-12-20T13:04:29;10.70;99.90
23069;DHT22;11702;50.856;4.348;2022-12-20T13:07:01;10.70;99.90
23069;DHT22;11702;50.856;4.348;2022-12-20T13:11:54;10.70;99.90
23069;DHT22;11702;50.856;4.348;2022-12-20T13:19:51;10.80;99.90
23069;DHT22;11702;50.856;4.348;2022-12-20T13:22:22;10.90;99.90
23069;DHT22;11702;50.856;4.348;2022-12-20T13:24:52;10.90;99.90
23069;DHT22;11702;50.856;4.348;2022-12-20T13:27:26;10.80;99.90
23069;DHT22;11702;50.856;4.348;2022-12-20T13:32:55;10.90;99.90
23069;DHT22;11702;50.856;4.348;2022-12-20T13:35:32;10.80;99.90
23069;DHT22;11702;50.856;4.348;2022-12-20T13:40:55;10.70;99.90
23069;DHT22;11702;50.856;4.348;2022-12-20T13:48:52;10.90;99.90
23069;DHT22;11702;50.856;4.348;2022-12-20T13:51:23;10.80;99.90
23069;DHT22;11702;50.856;4.348;2022-12-20T13:54:06;10.70;99.90
23069;DHT22;11702;50.856;4.348;2022-12-20T13:59:05;10.80;99.90
23069;DHT22;11702;50.856;4.348;2022-12-20T14:01:32;10.70;99.90
23069;DHT22;11702;50.856;4.348;2022-12-20T14:04:04;10.70;99.90
23069;DHT22;11702;50.856;4.348;2022-12-20T14:06:32;10.70;99.90
23069;DHT22;11702;50.856;4.348;2022-12-20T14:08:57;10.70;99.90
23069;DHT22;11702;50.856;4.348;2022-12-20T14:11:25;10.60;99.90
23069;DHT22;11702;50.856;4.348;2022-12-20T14:14:01;10.70;99.90
23069;DHT22;11702;50.856;4.348;2022-12-20T14:16:30;10.70;99.90
23069;DHT22;11702;50.856;4.348;2022-12-20T14:21:21;10.70;99.90
23069;DHT22;11702;50.856;4.348;2022-12-20T14:23:50;10.80;99.90
23069;DHT22;11702;50.856;4.348;2022-12-20T14:26:25;10.80;99.90
23069;DHT22;11702;50.856;4.348;2022-12-20T14:28:54;10.90;99.90
23069;DHT22;11702;50.856;4.348;2022-12-20T14:31:28;10.80;99.90
23069;DHT22;11702;50.856;4.348;2022-12-20T14:36:48;10.90;99.90
23069;DHT22;11702;50.856;4.348;2022-12-20T14:39:31;11.00;99.90
23069;DHT22;11702;50.856;4.348;2022-12-20T14:41:59;10.90;99.90
23069;DHT22;11702;50.856;4.348;2022-12-20T14:44:29;10.90;99.90
23069;DHT22;11702;50.856;4.348;2022-12-20T14:47:00;10.80;99.90
23069;DHT22;11702;50.856;4.348;2022-12-20T14:49:31;10.70;99.90
23069;DHT22;11702;50.856;4.348;2022-12-20T14:54:49;10.70;99.90
23069;DHT22;11702;50.856;4.348;2022-12-20T14:57:39;10.70;99.90
23069;DHT22;11702;50.856;4.348;2022-12-20T15:00:22;10.70;99.90
23069;DHT22;11702;50.856;4.348;2022-12-20T15:08:29;10.70;99.90
23069;DHT22;11702;50.856;4.348;2022-12-20T15:13:44;10.80;99.90
23069;DHT22;11702;50.856;4.348;2022-12-20T15:16:22;10.70;99.90
23069;DHT22;11702;50.856;4.348;2022-12-20T15:18:51;10.70;99.90
23069;DHT22;11702;50.856;4.348;2022-12-20T15:21:28;10.60;99.90
23069;DHT22;11702;50.856;4.348;2022-12-20T15:23:55;10.70;99.90
23069;DHT22;11702;50.856;4.348;2022-12-20T15:26:23;10.70;99.90
23069;DHT22;11702;50.856;4.348;2022-12-20T15:28:49;10.70;99.90
23069;DHT22;11702;50.856;4.348;2022-12-20T15:31:17;10.70;99.90
23069;DHT22;11702;50.856;4.348;2022-12-20T15:33:43;10.80;99.90
23069;DHT22;11702;50.856;4.348;2022-12-20T15:36:22;10.80;99.90
23069;DHT22;11702;50.856;4.348;2022-12-20T15:38:48;10.70;99.90
23069;DHT22;11702;50.856;4.348;2022-12-20T15:41:28;10.80;99.90
23069;DHT22;11702;50.856;4.348;2022-12-20T15:44:02;10.70;99.90
23069;DHT22;11702;50.856;4.348;2022-12-20T15:46:28;10.70;99.90
23069;DHT22;11702;50.856;4.348;2022-12-20T15:48:54;10.80;99.90
23069;DHT22;11702;50.856;4.348;2022-12-20T15:51:26;10.80;99.90
23069;DHT22;11702;50.856;4.348;2022-12-20T15:53:53;10.80;99.90
23069;DHT22;11702;50.856;4.348;2022-12-20T15:56:22;10.70;99.90
23069;DHT22;11702;50.856;4.348;2022-12-20T15:58:48;10.70;99.90
23069;DHT22;11702;50.856;4.348;2022-12-20T16:01:20;10.80;99.90
23069;DHT22;11702;50.856;4.348;2022-12-20T16:03:46;10.80;99.90
23069;DHT22;11702;50.856;4.348;2022-12-20T16:06:12;10.80;99.90
23069;DHT22;11702;50.856;4.348;2022-12-20T16:08:41;10.80;99.90
23069;DHT22;11702;50.856;4.348;2022-12-20T16:11:19;10.70;99.90
23069;DHT22;11702;50.856;4.348;2022-12-20T16:13:46;10.70;99.90
23069;DHT22;11702;50.856;4.348;2022-12-20T16:16:22;10.70;99.90
23069;DHT22;11702;50.856;4.348;2022-12-20T16:18:48;10.70;99.90
23069;DHT22;11702;50.856;4.348;2022-12-20T16:21:22;10.70;99.90
23069;DHT22;11702;50.856;4.348;2022-12-20T16:23:49;10.80;99.90
23069;DHT22;11702;50.856;4.348;2022-12-20T16:26:19;10.80;99.90
23069;DHT22;11702;50.856;4.348;2022-12-20T16:28:46;10.90;99.90
23069;DHT22;11702;50.856;4.348;2022-12-20T16:33:54;10.70;99.90
23069;DHT22;11702;50.856;4.348;2022-12-20T16:36:20;10.70;99.90
23069;DHT22;11702;50.856;4.348;2022-12-20T16:38:48;10.80;99.90
23069;DHT22;11702;50.856;4.348;2022-12-20T16:41:28;10.80;99.90
23069;DHT22;11702;50.856;4.348;2022-12-20T16:43:55;10.70;99.90
23069;DHT22;11702;50.856;4.348;2022-12-20T16:46:23;10.70;99.90
23069;DHT22;11702;50.856;4.348;2022-12-20T16:48:50;10.80;99.90
23069;DHT22;11702;50.856;4.348;2022-12-20T16:54:01;10.80;99.90
23069;DHT22;11702;50.856;4.348;2022-12-20T16:56:28;10.70;99.90
23069;DHT22;11702;50.856;4.348;2022-12-20T16:58:55;10.70;99.90
23069;DHT22;11702;50.856;4.348;2022-12-20T17:01:25;10.60;99.90
23069;DHT22;11702;50.856;4.348;2022-12-20T17:03:52;10.70;99.90
23069;DHT22;11702;50.856;4.348;2022-12-20T17:06:18;10.70;99.90
23069;DHT22;11702;50.856;4.348;2022-12-20T17:08:44;10.60;99.90
23069;DHT22;11702;50.856;4.348;2022-12-20T17:11:15;10.60;99.90
23069;DHT22;11702;50.856;4.348;2022-12-20T17:13:42;10.70;99.90
23069;DHT22;11702;50.856;4.348;2022-12-20T17:16:12;10.70;99.90
23069;DHT22;11702;50.856;4.348;2022-12-20T17:18:39;10.70;99.90
23069;DHT22;11702;50.856;4.348;2022-12-20T17:23:57;10.60;99.90
23069;DHT22;11702;50.856;4.348;2022-12-20T17:26:26;10.70;99.90
23069;DHT22;11702;50.856;4.348;2022-12-20T17:28:53;10.70;99.90
23069;DHT22;11702;50.856;4.348;2022-12-20T17:31:38;10.70;99.90
23069;DHT22;11702;50.856;4.348;2022-12-20T17:36:30;10.70;99.90
23069;DHT22;11702;50.856;4.348;2022-12-20T17:38:56;10.70;99.90
23069;DHT22;11702;50.856;4.348;2022-12-20T17:41:30;10.80;99.90
23069;DHT22;11702;50.856;4.348;2022-12-20T17:44:00;10.80;99.90
23069;DHT22;11702;50.856;4.348;2022-12-20T17:46:27;10.80;99.90
23069;DHT22;11702;50.856;4.348;2022-12-20T17:48:55;10.80;99.90
23069;DHT22;11702;50.856;4.348;2022-12-20T17:51:24;10.80;99.90
23069;DHT22;11702;50.856;4.348;2022-12-20T17:53:52;10.80;99.90
23069;DHT22;11702;50.856;4.348;2022-12-20T17:56:29;10.90;99.90
23069;DHT22;11702;50.856;4.348;2022-12-20T17:58:58;10.80;99.90
23069;DHT22;11702;50.856;4.348;2022-12-20T18:01:29;10.80;99.90
23069;DHT22;11702;50.856;4.348;2022-12-20T18:03:57;10.80;99.90
23069;DHT22;11702;50.856;4.348;2022-12-20T18:06:23;10.80;99.90
23069;DHT22;11702;50.856;4.348;2022-12-20T18:08:55;10.80;99.90